createdAt,value
2023-04-18T00:00:39.426Z,7.53
2023-04-18T00:03:09.816Z,8.03
2023-04-18T00:05:38.629Z,8.67
2023-04-18T00:08:08.836Z,8.40
2023-04-18T00:10:36.947Z,8.53
2023-04-18T00:13:05.050Z,8.57
2023-04-18T00:15:34.504Z,7.53
2023-04-18T00:18:06.227Z,7.47
2023-04-18T00:20:34.422Z,7.63
2023-04-18T00:23:02.511Z,7.13
2023-04-18T00:25:32.024Z,6.33
2023-04-18T00:28:00.148Z,6.20
2023-04-18T00:30:28.266Z,7.80
2023-04-18T00:32:56.405Z,6.70
2023-04-18T00:35:25.050Z,5.93
2023-04-18T00:37:53.129Z,5.90
2023-04-18T00:40:21.300Z,7.17
2023-04-18T00:42:50.827Z,6.53
2023-04-18T00:45:18.904Z,7.03
2023-04-18T00:47:47.050Z,6.77
2023-04-18T00:50:15.713Z,6.63
2023-04-18T00:52:44.773Z,6.63
2023-04-18T00:55:13.370Z,6.37
2023-04-18T00:57:42.883Z,6.97
2023-04-18T01:00:13.625Z,6.80
2023-04-18T01:02:41.858Z,6.50
2023-04-18T01:05:10.270Z,6.23
2023-04-18T01:07:40.771Z,6.73
2023-04-18T01:10:11.277Z,6.77
2023-04-18T01:12:39.438Z,6.40
2023-04-18T01:15:08.753Z,6.30
2023-04-18T01:17:38.542Z,6.27
2023-04-18T01:20:07.988Z,6.00
2023-04-18T01:22:36.101Z,6.10
2023-04-18T01:25:10.593Z,5.63
2023-04-18T01:27:38.664Z,6.80
2023-04-18T01:30:08.111Z,6.13
2023-04-18T01:32:36.228Z,6.43
2023-04-18T01:35:04.769Z,7.50
2023-04-18T01:37:33.236Z,6.73
2023-04-18T01:40:01.318Z,6.17
2023-04-18T01:42:31.422Z,5.97
2023-04-18T01:44:59.551Z,7.07
2023-04-18T01:47:27.715Z,6.40
2023-04-18T01:49:56.214Z,6.40
2023-04-18T01:52:24.351Z,6.90
2023-04-18T01:54:52.488Z,6.43
2023-04-18T01:57:20.560Z,7.00
2023-04-18T01:59:50.019Z,6.40
2023-04-18T02:02:18.232Z,6.40
2023-04-18T02:04:46.468Z,6.33
2023-04-18T02:07:14.536Z,6.37
2023-04-18T02:09:42.601Z,7.03
2023-04-18T02:12:12.602Z,6.60
2023-04-18T02:14:40.718Z,6.33
2023-04-18T02:17:10.285Z,6.40
2023-04-18T02:19:38.358Z,6.80
2023-04-18T02:22:06.474Z,6.63
2023-04-18T02:24:34.564Z,7.17
2023-04-18T02:27:02.631Z,6.70
2023-04-18T02:29:31.224Z,6.10
2023-04-18T02:32:00.156Z,6.53
2023-04-18T02:34:29.687Z,6.20
2023-04-18T02:36:57.772Z,6.43
2023-04-18T02:39:25.845Z,6.43
2023-04-18T02:41:53.918Z,6.40
2023-04-18T02:44:21.992Z,5.80
2023-04-18T02:46:50.078Z,6.93
2023-04-18T02:49:18.165Z,6.90
2023-04-18T02:51:47.642Z,7.27
2023-04-18T02:54:15.831Z,6.50
2023-04-18T02:56:43.998Z,6.93
2023-04-18T02:59:12.183Z,6.53
2023-04-18T03:07:02.608Z,6.07
2023-04-18T03:09:30.833Z,6.50
2023-04-18T03:11:58.919Z,6.33
2023-04-18T03:14:27.006Z,6.97
2023-04-18T03:16:55.699Z,6.13
2023-04-18T03:19:23.806Z,6.37
2023-04-18T03:21:51.839Z,6.87
2023-04-18T03:24:21.310Z,6.70
2023-04-18T03:26:49.474Z,6.70
2023-04-18T03:29:17.616Z,6.93
2023-04-18T03:31:45.904Z,7.53
2023-04-18T03:34:14.309Z,6.13
2023-04-18T03:36:42.521Z,6.50
2023-04-18T03:39:10.559Z,6.90
2023-04-18T03:41:40.004Z,6.77
2023-04-18T03:44:08.928Z,6.47
2023-04-18T03:46:37.194Z,6.80
2023-04-18T03:49:05.386Z,6.77
2023-04-18T03:51:36.033Z,7.17
2023-04-18T03:54:04.192Z,6.67
2023-04-18T03:56:32.263Z,7.10
2023-04-18T03:59:01.760Z,7.10
2023-04-18T04:01:29.834Z,7.07
2023-04-18T04:03:57.993Z,7.10
2023-04-18T04:06:26.315Z,6.63
2023-04-18T04:08:54.467Z,6.53
2023-04-18T04:11:22.922Z,6.63
2023-04-18T04:13:51.161Z,7.27
2023-04-18T04:16:20.644Z,6.93
2023-04-18T04:18:48.846Z,7.67
2023-04-18T04:21:20.033Z,7.17
2023-04-18T04:23:49.182Z,7.27
2023-04-18T04:26:17.347Z,7.07
2023-04-18T04:28:46.564Z,7.23
2023-04-18T04:31:16.375Z,6.73
2023-04-18T04:33:46.629Z,7.47
2023-04-18T04:36:18.763Z,6.50
2023-04-18T04:38:47.385Z,6.20
2023-04-18T04:41:15.532Z,7.30
2023-04-18T04:43:43.595Z,6.67
2023-04-18T04:46:13.741Z,6.77
2023-04-18T04:48:42.242Z,7.40
2023-04-18T04:51:11.738Z,6.73
2023-04-18T04:53:39.797Z,7.07
2023-04-18T04:56:09.347Z,7.63
2023-04-18T04:58:37.871Z,6.73
2023-04-18T05:01:07.701Z,7.27
2023-04-18T05:03:36.875Z,7.10
2023-04-18T05:06:05.535Z,6.70
2023-04-18T05:08:34.994Z,6.43
2023-04-18T05:11:03.281Z,7.30
2023-04-18T05:13:31.490Z,7.23
2023-04-18T05:16:00.335Z,7.53
2023-04-18T05:18:28.437Z,6.87
2023-04-18T05:20:56.945Z,6.57
2023-04-18T05:23:25.132Z,7.10
2023-04-18T05:25:54.567Z,7.13
2023-04-18T05:28:24.613Z,7.17
2023-04-18T05:30:52.866Z,7.17
2023-04-18T05:33:21.022Z,6.90
2023-04-18T05:35:49.101Z,6.90
2023-04-18T05:38:17.214Z,6.97
2023-04-18T05:40:45.273Z,7.27
2023-04-18T05:43:14.777Z,7.40
2023-04-18T05:45:42.891Z,6.53
2023-04-18T05:48:11.054Z,7.53
2023-04-18T05:50:39.194Z,7.07
2023-04-18T05:53:07.521Z,7.43
2023-04-18T05:55:35.630Z,7.33
2023-04-18T05:58:03.704Z,7.17
2023-04-18T06:00:33.283Z,6.27
2023-04-18T06:03:01.492Z,6.60
2023-04-18T06:05:30.296Z,7.67
2023-04-18T06:07:58.664Z,7.47
2023-04-18T06:10:26.875Z,6.30
2023-04-18T06:12:54.972Z,7.23
2023-04-18T06:15:23.072Z,8.03
2023-04-18T06:17:52.728Z,7.13
2023-04-18T06:20:20.968Z,6.90
2023-04-18T06:22:49.036Z,7.57
2023-04-18T06:25:17.192Z,7.50
2023-04-18T06:27:45.218Z,6.73
2023-04-18T06:30:13.885Z,6.50
2023-04-18T06:32:42.032Z,7.30
2023-04-18T06:35:11.653Z,6.40
2023-04-18T06:37:43.993Z,6.63
2023-04-18T06:40:13.055Z,6.73
2023-04-18T06:42:41.175Z,6.67
2023-04-18T06:45:11.006Z,6.87
2023-04-18T06:47:39.502Z,6.83
2023-04-18T06:50:12.036Z,5.80
2023-04-18T06:52:44.448Z,6.20
2023-04-18T06:55:13.492Z,7.00
2023-04-18T06:57:44.063Z,6.00
2023-04-18T07:00:13.113Z,6.53
2023-04-18T07:02:41.761Z,6.80
2023-04-18T07:05:11.624Z,6.50
2023-04-18T07:07:40.191Z,6.50
2023-04-18T07:10:09.954Z,6.83
2023-04-18T07:12:38.084Z,5.40
2023-04-18T07:15:06.903Z,5.33
2023-04-18T07:17:35.012Z,5.33
2023-04-18T07:20:03.463Z,5.50
2023-04-18T07:22:32.905Z,6.13
2023-04-18T07:25:00.937Z,5.77
2023-04-18T07:27:28.995Z,5.60
2023-04-18T07:29:57.833Z,5.30
2023-04-18T07:32:26.039Z,5.40
2023-04-18T07:34:54.100Z,5.87
2023-04-18T07:37:22.242Z,4.80
2023-04-18T07:39:52.661Z,4.90
2023-04-18T07:42:20.809Z,5.07
2023-04-18T07:44:49.673Z,5.17
2023-04-18T07:47:22.422Z,4.63
2023-04-18T07:49:50.765Z,4.97
2023-04-18T07:52:18.895Z,4.37
2023-04-18T07:54:46.978Z,4.87
2023-04-18T07:57:16.436Z,4.70
2023-04-18T07:59:44.493Z,4.80
2023-04-18T08:02:12.620Z,4.23
2023-04-18T08:04:40.952Z,3.97
2023-04-18T08:07:09.274Z,4.60
2023-04-18T08:09:37.367Z,3.63
2023-04-18T08:12:05.929Z,4.50
2023-04-18T08:14:35.421Z,4.70
2023-04-18T08:17:03.682Z,4.77
2023-04-18T08:19:31.828Z,4.67
2023-04-18T08:22:10.239Z,4.50
2023-04-18T08:24:39.371Z,4.40
2023-04-18T08:27:07.503Z,4.40
2023-04-18T08:29:37.022Z,4.20
2023-04-18T08:32:08.104Z,4.47
2023-04-18T08:34:38.155Z,4.30
2023-04-18T08:37:07.326Z,4.43
2023-04-18T08:39:35.705Z,4.37
2023-04-18T08:42:04.816Z,3.97
2023-04-18T08:44:33.104Z,4.20
2023-04-18T08:47:03.171Z,4.23
2023-04-18T08:49:32.220Z,4.00
2023-04-18T08:52:02.417Z,3.70
2023-04-18T08:54:31.287Z,3.97
2023-04-18T08:57:06.134Z,4.47
2023-04-18T08:59:35.617Z,4.13
2023-04-18T09:02:08.860Z,4.23
2023-04-18T09:04:39.144Z,3.70
2023-04-18T09:07:10.028Z,4.47
2023-04-18T09:09:42.602Z,3.90
2023-04-18T09:12:14.346Z,3.97
2023-04-18T09:14:47.112Z,4.00
2023-04-18T09:17:31.569Z,4.33
2023-04-18T09:20:01.158Z,4.27
2023-04-18T09:22:46.124Z,3.53
2023-04-18T09:25:27.394Z,4.20
2023-04-18T09:27:56.125Z,4.87
2023-04-18T09:30:32.958Z,4.17
2023-04-18T09:33:06.986Z,3.93
2023-04-18T09:35:35.903Z,4.77
2023-04-18T09:38:04.286Z,4.50
2023-04-18T09:40:32.844Z,5.37
2023-04-18T09:43:01.298Z,3.67
2023-04-18T09:45:29.399Z,4.30
2023-04-18T09:47:57.601Z,4.37
2023-04-18T09:50:27.161Z,4.40
2023-04-18T09:52:56.926Z,4.50
2023-04-18T09:55:25.173Z,4.27
2023-04-18T09:57:55.037Z,4.83
2023-04-18T10:00:25.399Z,4.17
2023-04-18T10:02:58.039Z,3.80
2023-04-18T10:05:29.351Z,4.13
2023-04-18T10:07:57.997Z,4.13
2023-04-18T10:10:26.459Z,3.90
2023-04-18T10:12:56.449Z,4.17
2023-04-18T10:15:26.997Z,3.70
2023-04-18T10:18:04.237Z,3.83
2023-04-18T10:20:35.812Z,3.80
2023-04-18T10:23:35.709Z,3.47
2023-04-18T10:26:04.693Z,3.90
2023-04-18T10:28:53.325Z,3.37
2023-04-18T10:31:23.499Z,3.40
2023-04-18T10:34:04.042Z,3.50
2023-04-18T10:36:34.715Z,3.60
2023-04-18T10:39:20.665Z,3.70
2023-04-18T10:41:51.053Z,3.60
2023-04-18T10:44:23.809Z,4.00
2023-04-18T10:47:32.022Z,4.27
2023-04-18T10:50:06.149Z,4.50
2023-04-18T10:52:36.279Z,4.30
2023-04-18T10:55:25.655Z,4.37
2023-04-18T10:57:56.354Z,4.73
2023-04-18T11:00:25.069Z,4.77
2023-04-18T11:02:55.994Z,4.77
2023-04-18T11:05:26.625Z,5.20
2023-04-18T11:07:56.693Z,4.93
2023-04-18T11:10:26.672Z,4.43
2023-04-18T11:12:59.266Z,5.07
2023-04-18T11:15:29.135Z,4.40
2023-04-18T11:18:02.694Z,4.93
2023-04-18T11:20:38.160Z,5.20
2023-04-18T11:23:17.847Z,5.43
2023-04-18T11:25:47.082Z,4.57
2023-04-18T11:28:20.716Z,4.73
2023-04-18T11:30:49.434Z,5.67
2023-04-18T11:33:17.697Z,4.80
2023-04-18T11:35:47.732Z,6.10
2023-04-18T11:38:18.534Z,7.23
2023-04-18T11:40:49.469Z,5.53
2023-04-18T11:43:21.951Z,5.87
2023-04-18T11:45:54.580Z,5.40
2023-04-18T11:48:23.063Z,6.30
2023-04-18T11:50:51.429Z,5.70
2023-04-18T11:53:35.018Z,5.90
2023-04-18T11:56:03.814Z,5.67
2023-04-18T11:58:33.109Z,5.47
2023-04-18T12:01:01.934Z,5.87
2023-04-18T12:03:30.446Z,5.67
2023-04-18T12:06:01.679Z,5.83
2023-04-18T12:08:32.256Z,5.70
2023-04-18T12:11:01.761Z,5.63
2023-04-18T12:13:33.613Z,6.03
2023-04-18T12:16:03.391Z,6.43
2023-04-18T12:18:32.520Z,6.43
2023-04-18T12:21:01.855Z,7.17
2023-04-18T12:23:34.326Z,6.43
2023-04-18T12:26:05.727Z,6.73
2023-04-18T12:28:34.744Z,6.40
2023-04-18T12:31:03.189Z,7.30
2023-04-18T12:33:31.858Z,7.30
2023-04-18T12:36:00.858Z,7.40
2023-04-18T12:38:28.966Z,7.00
2023-04-18T12:40:57.055Z,7.50
2023-04-18T12:43:26.735Z,7.03
2023-04-18T12:45:54.782Z,7.63
2023-04-18T12:48:22.854Z,7.53
2023-04-18T12:50:50.962Z,8.13
2023-04-18T12:53:19.001Z,7.97
2023-04-18T12:55:47.250Z,7.27
2023-04-18T12:58:18.641Z,7.13
2023-04-18T13:00:48.278Z,7.57
2023-04-18T13:03:16.574Z,7.73
2023-04-18T13:05:44.920Z,7.70
2023-04-18T13:08:17.713Z,8.57
2023-04-18T13:10:46.295Z,8.23
2023-04-18T13:13:14.622Z,9.40
2023-04-18T13:15:42.686Z,9.63
2023-04-18T13:18:12.092Z,7.73
2023-04-18T13:20:40.171Z,9.50
2023-04-18T13:23:08.208Z,9.43
2023-04-18T13:25:36.285Z,8.80
2023-04-18T13:28:04.359Z,9.63
2023-04-18T13:30:34.236Z,8.63
2023-04-18T13:33:02.348Z,9.40
2023-04-18T13:35:31.957Z,9.83
2023-04-18T13:38:00.368Z,8.93
2023-04-18T13:40:28.446Z,9.37
2023-04-18T13:42:56.672Z,9.27
2023-04-18T13:45:24.741Z,9.40
2023-04-18T13:47:52.887Z,8.97
2023-04-18T13:50:21.330Z,9.30
2023-04-18T13:52:52.027Z,9.17
2023-04-18T13:55:20.165Z,8.87
2023-04-18T13:57:48.271Z,10.13
2023-04-18T14:00:17.454Z,8.60
2023-04-18T14:02:45.743Z,9.40
2023-04-18T14:05:14.040Z,8.80
2023-04-18T14:07:42.180Z,9.60
2023-04-18T14:10:12.390Z,8.93
2023-04-18T14:12:41.041Z,9.17
2023-04-18T14:15:10.639Z,9.47
2023-04-18T14:17:38.793Z,9.60
2023-04-18T14:20:08.553Z,8.90
2023-04-18T14:22:36.873Z,9.30
2023-04-18T14:25:05.371Z,9.33
2023-04-18T14:27:34.930Z,9.57
2023-04-18T14:30:02.999Z,10.30
2023-04-18T14:32:31.197Z,9.13
2023-04-18T14:34:59.939Z,8.30
2023-04-18T14:37:28.001Z,8.93
2023-04-18T14:39:56.095Z,10.17
2023-04-18T14:42:24.234Z,9.70
2023-04-18T14:44:53.727Z,9.80
2023-04-18T14:47:22.285Z,10.40
2023-04-18T14:49:51.621Z,9.47
2023-04-18T14:52:19.684Z,11.03
2023-04-18T14:54:47.804Z,9.30
2023-04-18T14:57:16.194Z,9.20
2023-04-18T14:59:44.250Z,8.10
2023-04-18T15:02:13.788Z,9.17
2023-04-18T15:04:41.966Z,8.97
2023-04-18T15:07:10.366Z,8.70
2023-04-18T15:09:38.620Z,9.27
2023-04-18T15:12:07.857Z,8.33
2023-04-18T15:14:36.207Z,9.30
2023-04-18T15:17:04.553Z,9.23
2023-04-18T15:19:34.532Z,8.90
2023-04-18T15:22:03.026Z,8.50
2023-04-18T15:24:31.320Z,8.13
2023-04-18T15:26:59.400Z,8.47
2023-04-18T15:29:27.545Z,8.70
2023-04-18T15:31:55.826Z,8.43
2023-04-18T15:34:23.989Z,8.20
2023-04-18T15:36:53.577Z,8.90
2023-04-18T15:39:23.561Z,8.30
2023-04-18T15:41:54.710Z,8.57
2023-04-18T15:44:23.150Z,8.83
2023-04-18T15:46:51.332Z,9.07
2023-04-18T15:49:19.426Z,8.20
2023-04-18T15:55:40.195Z,8.27
2023-04-18T15:58:08.254Z,7.73
2023-04-18T16:00:36.333Z,7.90
2023-04-18T16:03:05.156Z,8.27
2023-04-18T16:05:33.316Z,8.23
2023-04-18T16:08:02.339Z,7.67
2023-04-18T16:10:30.519Z,8.00
2023-04-18T16:13:00.492Z,7.80
2023-04-18T16:15:28.726Z,8.03
2023-04-18T16:17:56.797Z,8.33
2023-04-18T16:20:26.550Z,7.60
2023-04-18T16:22:54.727Z,7.70
2023-04-18T16:25:22.947Z,8.23
2023-04-18T16:27:51.081Z,7.80
2023-04-18T16:30:20.569Z,7.43
2023-04-18T16:32:48.852Z,7.90
2023-04-18T16:35:17.005Z,8.97
2023-04-18T16:37:45.081Z,7.50
2023-04-18T16:40:13.439Z,7.93
2023-04-18T16:42:41.652Z,8.30
2023-04-18T16:45:10.132Z,8.27
2023-04-18T16:47:39.640Z,8.47
2023-04-18T16:50:08.915Z,7.83
2023-04-18T16:52:37.002Z,6.57
2023-04-18T16:55:05.640Z,7.77
2023-04-18T16:57:34.052Z,8.13
2023-04-18T17:00:02.575Z,7.67
2023-04-18T17:02:30.927Z,8.00
2023-04-18T17:05:00.677Z,7.83
2023-04-18T17:07:29.007Z,7.00
2023-04-18T17:09:57.098Z,6.90
2023-04-18T17:12:25.193Z,6.90
2023-04-18T17:14:53.272Z,6.97
2023-04-18T17:17:21.378Z,6.37
2023-04-18T17:19:49.429Z,7.00
2023-04-18T17:22:18.889Z,7.50
2023-04-18T17:24:46.940Z,6.87
2023-04-18T17:27:14.983Z,7.30
2023-04-18T17:29:43.082Z,6.73
2023-04-18T17:32:11.357Z,6.13
2023-04-18T17:34:39.518Z,6.87
2023-04-18T17:37:07.557Z,6.37
2023-04-18T17:39:36.974Z,7.07
2023-04-18T17:42:05.209Z,6.80
2023-04-18T17:44:33.324Z,6.37
2023-04-18T17:47:02.136Z,7.00
2023-04-18T17:49:34.511Z,7.43
2023-04-18T17:52:02.786Z,6.90
2023-04-18T17:54:31.053Z,6.93
2023-04-18T17:57:01.949Z,7.00
2023-04-18T17:59:30.303Z,7.10
2023-04-18T18:01:59.605Z,6.63
2023-04-18T18:04:27.987Z,6.23
2023-04-18T18:06:56.516Z,6.27
2023-04-18T18:09:24.610Z,6.60
2023-04-18T18:11:55.345Z,6.83
2023-04-18T18:14:25.842Z,7.07
2023-04-18T18:16:54.367Z,6.83
2023-04-18T18:19:22.538Z,6.53
2023-04-18T18:21:50.598Z,5.90
2023-04-18T18:24:19.648Z,6.73
2023-04-18T18:26:48.548Z,6.80
2023-04-18T18:29:19.276Z,7.33
2023-04-18T18:31:48.797Z,7.30
2023-04-18T18:34:16.980Z,6.70
2023-04-18T18:36:45.066Z,6.90
2023-04-18T18:39:14.652Z,6.93
2023-04-18T18:41:43.009Z,6.67
2023-04-18T18:44:11.590Z,6.87
2023-04-18T18:46:40.616Z,6.97
2023-04-18T18:49:11.034Z,7.67
2023-04-18T18:51:39.172Z,6.87
2023-04-18T18:54:07.343Z,7.60
2023-04-18T18:56:35.453Z,7.60
2023-04-18T18:59:04.230Z,7.47
2023-04-18T19:01:32.361Z,7.37
2023-04-18T19:04:00.900Z,7.90
2023-04-18T19:06:30.922Z,7.40
2023-04-18T19:08:59.105Z,7.07
2023-04-18T19:11:27.851Z,9.13
2023-04-18T19:13:55.907Z,8.03
2023-04-18T19:16:24.177Z,8.17
2023-04-18T19:18:52.382Z,7.83
2023-04-18T19:21:20.652Z,8.60
2023-04-18T19:23:50.098Z,7.40
2023-04-18T19:26:18.599Z,8.27
2023-04-18T19:28:46.986Z,8.33
2023-04-18T19:31:15.107Z,8.30
2023-04-18T19:33:43.209Z,8.67
2023-04-18T19:36:11.351Z,8.47
2023-04-18T19:38:39.463Z,8.67
2023-04-18T19:41:08.888Z,8.27
2023-04-18T19:43:38.413Z,8.43
2023-04-18T19:46:06.589Z,8.13
2023-04-18T19:48:34.752Z,8.43
2023-04-18T19:51:04.296Z,7.93
2023-04-18T19:53:32.475Z,8.60
2023-04-18T19:56:00.497Z,8.43
2023-04-18T19:58:36.903Z,8.23
2023-04-18T20:05:31.191Z,7.50
2023-04-18T20:07:59.376Z,7.80
2023-04-18T20:10:27.637Z,7.27
2023-04-18T20:12:55.721Z,6.70
2023-04-18T20:15:25.463Z,6.17
2023-04-18T20:17:53.568Z,6.30
2023-04-18T20:20:21.835Z,5.90
2023-04-18T20:22:49.888Z,6.00
2023-04-18T20:25:18.093Z,5.97
2023-04-18T20:27:46.155Z,6.10
2023-04-18T20:30:14.798Z,6.17
2023-04-18T20:32:44.327Z,6.17
2023-04-18T20:35:12.922Z,6.10
2023-04-18T20:37:41.381Z,5.37
2023-04-18T20:40:11.359Z,5.83
2023-04-18T20:42:39.723Z,6.10
2023-04-18T20:49:00.187Z,5.53
2023-04-18T20:51:28.540Z,5.67
2023-04-18T20:53:56.632Z,6.80
2023-04-18T21:00:16.057Z,5.37
2023-04-18T21:02:45.571Z,5.73
2023-04-18T21:05:15.194Z,5.70
2023-04-18T21:07:44.700Z,5.47
2023-04-18T21:10:13.854Z,6.33
2023-04-18T21:12:41.898Z,5.47
2023-04-18T21:15:10.672Z,5.70
2023-04-18T21:17:38.751Z,5.67
2023-04-18T21:20:08.173Z,6.07
2023-04-18T21:22:37.623Z,5.10
2023-04-18T21:25:06.190Z,5.40
2023-04-18T21:27:34.296Z,6.20
2023-04-18T21:30:04.614Z,5.97
2023-04-18T21:32:33.092Z,5.77
2023-04-18T21:35:01.762Z,6.07
2023-04-18T21:37:29.979Z,6.23
2023-04-18T21:39:59.441Z,5.93
2023-04-18T21:42:27.530Z,5.27
2023-04-18T21:44:55.866Z,5.33
2023-04-18T21:47:25.895Z,5.90
2023-04-18T21:49:53.992Z,6.20
2023-04-18T21:52:22.171Z,6.30
2023-04-18T21:54:50.269Z,6.10
2023-04-18T21:57:19.720Z,6.30
2023-04-18T21:59:47.757Z,6.20
2023-04-18T22:02:15.882Z,6.73
2023-04-18T22:04:44.247Z,5.50
2023-04-18T22:07:12.490Z,5.70
2023-04-18T22:09:40.656Z,5.90
2023-04-18T22:12:09.316Z,6.13
2023-04-18T22:14:40.375Z,5.73
2023-04-18T22:17:09.259Z,7.27
2023-04-18T22:19:37.339Z,6.60
2023-04-18T22:22:05.971Z,6.77
2023-04-18T22:24:34.088Z,6.23
2023-04-18T22:27:02.845Z,6.60
2023-04-18T22:29:30.989Z,6.73
2023-04-18T22:32:00.447Z,6.90
2023-04-18T22:34:28.561Z,6.83
2023-04-18T22:36:56.674Z,6.67
2023-04-18T22:39:26.067Z,7.10
2023-04-18T22:41:54.121Z,6.93
2023-04-18T22:44:22.218Z,6.60
2023-04-18T22:46:50.818Z,6.33
2023-04-18T22:49:20.480Z,7.37
2023-04-18T22:51:48.538Z,7.07
2023-04-18T22:54:16.764Z,8.30
2023-04-18T22:56:44.925Z,7.07
2023-04-18T22:59:12.986Z,6.93
2023-04-18T23:01:41.217Z,7.27
2023-04-18T23:04:09.561Z,7.30
2023-04-18T23:06:39.190Z,7.50
2023-04-18T23:09:09.130Z,7.23
2023-04-18T23:11:37.217Z,6.53
2023-04-18T23:14:05.243Z,7.50
2023-04-18T23:16:33.570Z,7.40
2023-04-18T23:19:01.667Z,5.67
2023-04-18T23:21:31.206Z,6.67
2023-04-18T23:24:00.944Z,7.37
2023-04-18T23:26:29.009Z,6.53
2023-04-18T23:28:57.101Z,7.03
2023-04-18T23:31:25.262Z,6.13
2023-04-18T23:33:53.746Z,6.17
2023-04-18T23:36:21.804Z,6.33
2023-04-18T23:38:49.877Z,6.53
2023-04-18T23:41:19.337Z,7.13
2023-04-18T23:43:47.386Z,6.83
2023-04-18T23:46:16.467Z,6.03
2023-04-18T23:48:44.530Z,6.33
2023-04-18T23:51:12.619Z,5.83
2023-04-18T23:53:40.701Z,5.40
2023-04-18T23:56:08.908Z,6.67
2023-04-18T23:58:38.369Z,6.37
